createdAt,value
2024-03-10T00:00:21.435Z,12.84
2024-03-10T00:02:52.750Z,12.83
2024-03-10T00:05:24.282Z,12.82
2024-03-10T00:07:55.601Z,12.76
2024-03-10T00:10:27.135Z,12.73
2024-03-10T00:12:58.427Z,12.74
2024-03-10T00:15:29.588Z,12.74
2024-03-10T00:18:00.741Z,12.74
2024-03-10T00:20:32.152Z,12.76
2024-03-10T00:23:03.814Z,12.77
2024-03-10T00:25:34.978Z,12.76
2024-03-10T00:28:07.353Z,12.76
2024-03-10T00:30:38.494Z,12.76
2024-03-10T00:33:09.697Z,12.75
2024-03-10T00:35:40.773Z,12.74
2024-03-10T00:38:11.928Z,12.73
2024-03-10T00:40:42.870Z,12.73
2024-03-10T00:43:13.801Z,12.73
2024-03-10T00:45:45.125Z,12.72
2024-03-10T00:48:16.990Z,12.65
2024-03-10T00:50:48.967Z,12.57
2024-03-10T00:53:20.519Z,12.54
2024-03-10T00:55:52.303Z,12.55
2024-03-10T00:58:23.584Z,12.56
2024-03-10T01:00:54.550Z,12.57
2024-03-10T01:03:25.541Z,12.59
2024-03-10T01:05:56.381Z,12.62
2024-03-10T01:08:27.448Z,12.63
2024-03-10T01:10:58.557Z,12.62
2024-03-10T01:13:30.379Z,12.64
2024-03-10T01:16:01.718Z,12.67
2024-03-10T01:18:33.078Z,12.69
2024-03-10T01:21:04.544Z,12.70
2024-03-10T01:23:35.362Z,12.71
2024-03-10T01:26:07.086Z,12.71
2024-03-10T01:28:39.037Z,12.71
2024-03-10T01:31:10.982Z,12.70
2024-03-10T01:33:42.290Z,12.73
2024-03-10T01:36:13.747Z,12.73
2024-03-10T01:38:44.668Z,12.76
2024-03-10T01:41:15.623Z,12.77
2024-03-10T01:43:49.084Z,12.78
2024-03-10T01:46:20.135Z,12.77
2024-03-10T01:48:52.086Z,12.78
2024-03-10T01:51:24.049Z,12.80
2024-03-10T01:53:56.475Z,12.81
2024-03-10T01:56:29.790Z,12.82
2024-03-10T01:59:01.186Z,12.83
2024-03-10T02:01:33.619Z,12.83
2024-03-10T02:04:09.985Z,12.82
2024-03-10T02:06:44.280Z,12.81
2024-03-10T02:09:15.315Z,12.78
2024-03-10T02:11:46.752Z,12.74
2024-03-10T02:14:17.654Z,12.70
2024-03-10T02:16:50.907Z,12.68
2024-03-10T02:19:22.438Z,12.67
2024-03-10T02:21:53.739Z,12.66
2024-03-10T02:24:30.220Z,12.67
2024-03-10T02:27:02.028Z,12.66
2024-03-10T02:29:51.016Z,12.66
2024-03-10T02:32:36.224Z,12.67
2024-03-10T02:35:23.152Z,12.67
2024-03-10T02:38:07.943Z,12.68
2024-03-10T02:40:52.794Z,12.70
2024-03-10T02:43:38.057Z,12.71
2024-03-10T02:46:22.857Z,12.71
2024-03-10T02:48:55.084Z,12.70
2024-03-10T02:51:27.757Z,12.69
2024-03-10T02:53:58.729Z,12.69
2024-03-10T02:56:29.969Z,12.68
2024-03-10T02:59:01.133Z,12.67
2024-03-10T03:01:32.690Z,12.68
2024-03-10T03:04:05.809Z,12.70
2024-03-10T03:06:37.625Z,12.71
2024-03-10T03:09:09.344Z,12.72
2024-03-10T03:11:40.210Z,12.74
2024-03-10T03:14:14.542Z,12.73
2024-03-10T03:16:47.630Z,12.74
2024-03-10T03:19:19.206Z,12.76
2024-03-10T03:21:50.102Z,12.77
2024-03-10T03:24:21.201Z,12.77
2024-03-10T03:26:53.421Z,12.78
2024-03-10T03:29:25.031Z,12.76
2024-03-10T03:31:56.537Z,12.70
2024-03-10T03:34:27.930Z,12.67
2024-03-10T03:36:59.278Z,12.66
2024-03-10T03:39:30.217Z,12.65
2024-03-10T03:42:01.114Z,12.65
2024-03-10T03:44:32.814Z,12.63
2024-03-10T03:47:03.824Z,12.50
2024-03-10T03:49:35.187Z,12.47
2024-03-10T03:52:07.921Z,12.48
2024-03-10T03:54:41.108Z,12.49
2024-03-10T03:57:12.663Z,12.52
2024-03-10T03:59:44.378Z,12.52
2024-03-10T04:02:15.378Z,12.52
2024-03-10T04:04:46.610Z,12.54
2024-03-10T04:07:17.724Z,12.55
2024-03-10T04:09:48.608Z,12.55
2024-03-10T04:12:19.700Z,12.56
2024-03-10T04:14:50.770Z,12.56
2024-03-10T04:17:21.952Z,12.57
2024-03-10T04:19:52.771Z,12.59
2024-03-10T04:22:24.324Z,12.59
2024-03-10T04:24:56.429Z,12.58
2024-03-10T04:27:29.308Z,12.57
2024-03-10T04:30:00.447Z,12.57
2024-03-10T04:32:31.950Z,12.57
2024-03-10T04:35:02.877Z,12.56
2024-03-10T04:37:33.804Z,12.55
2024-03-10T04:40:07.376Z,12.57
2024-03-10T04:42:39.761Z,12.58
2024-03-10T04:45:13.215Z,12.61
2024-03-10T04:47:44.182Z,12.62
2024-03-10T04:50:15.390Z,12.62
2024-03-10T04:52:46.404Z,12.62
2024-03-10T04:55:17.825Z,12.62
2024-03-10T04:57:48.695Z,12.61
2024-03-10T05:00:21.177Z,12.59
2024-03-10T05:02:52.678Z,12.58
2024-03-10T05:05:23.967Z,12.57
2024-03-10T05:07:55.144Z,12.57
2024-03-10T05:10:25.988Z,12.58
2024-03-10T05:12:57.470Z,12.59
2024-03-10T05:15:28.374Z,12.55
2024-03-10T05:17:59.444Z,12.48
2024-03-10T05:20:30.780Z,12.48
2024-03-10T05:23:01.987Z,12.51
2024-03-10T05:25:33.163Z,12.54
2024-03-10T05:28:04.420Z,12.57
2024-03-10T05:30:35.404Z,12.58
2024-03-10T05:33:08.073Z,12.59
2024-03-10T05:35:40.189Z,12.60
2024-03-10T05:38:11.148Z,12.59
2024-03-10T05:40:42.376Z,12.59
2024-03-10T05:43:13.174Z,12.59
2024-03-10T05:45:43.996Z,12.61
2024-03-10T05:48:16.786Z,12.61
2024-03-10T05:50:47.919Z,12.64
2024-03-10T05:53:19.349Z,12.66
2024-03-10T05:55:50.522Z,12.69
2024-03-10T05:58:22.654Z,12.71
2024-03-10T06:00:53.689Z,12.71
2024-03-10T06:03:24.953Z,12.73
2024-03-10T06:05:57.894Z,12.76
2024-03-10T06:08:30.037Z,12.78
2024-03-10T06:11:01.180Z,12.78
2024-03-10T06:13:32.417Z,12.79
2024-03-10T06:16:04.175Z,12.80
2024-03-10T06:18:55.754Z,12.80
2024-03-10T06:21:42.324Z,12.82
2024-03-10T06:24:27.597Z,12.82
2024-03-10T06:26:59.105Z,12.84
2024-03-10T06:29:30.209Z,12.84
2024-03-10T06:32:01.495Z,12.86
2024-03-10T06:34:33.267Z,12.86
2024-03-10T06:37:04.182Z,12.88
2024-03-10T06:39:35.054Z,12.88
2024-03-10T06:42:07.915Z,12.88
2024-03-10T06:44:39.040Z,12.87
2024-03-10T06:47:10.667Z,12.88
2024-03-10T06:49:41.950Z,12.88
2024-03-10T06:52:13.070Z,12.85
2024-03-10T06:54:44.359Z,12.78
2024-03-10T06:57:15.481Z,13.02
2024-03-10T06:59:46.594Z,13.48
2024-03-10T07:02:17.751Z,13.85
2024-03-10T07:04:48.876Z,14.18
2024-03-10T07:07:19.839Z,14.45
2024-03-10T07:09:51.697Z,14.67
2024-03-10T07:12:22.943Z,14.86
2024-03-10T07:14:53.862Z,15.06
2024-03-10T07:17:25.842Z,15.23
2024-03-10T07:19:56.871Z,15.39
2024-03-10T07:22:28.210Z,15.55
2024-03-10T07:24:59.105Z,15.71
2024-03-10T07:27:30.230Z,15.86
2024-03-10T07:30:00.949Z,15.89
2024-03-10T07:32:32.125Z,15.96
2024-03-10T07:35:04.958Z,16.08
2024-03-10T07:37:36.082Z,16.13
2024-03-10T07:40:16.623Z,16.16
2024-03-10T07:42:47.973Z,16.10
2024-03-10T07:45:19.886Z,16.05
2024-03-10T07:47:51.802Z,16.01
2024-03-10T07:50:23.231Z,15.98
2024-03-10T07:52:54.100Z,15.95
2024-03-10T07:55:25.832Z,15.71
2024-03-10T07:57:56.560Z,15.08
2024-03-10T08:00:28.269Z,14.67
2024-03-10T08:02:59.145Z,14.50
2024-03-10T08:05:31.299Z,14.47
2024-03-10T08:08:02.411Z,14.49
2024-03-10T08:10:33.818Z,14.49
2024-03-10T08:13:05.463Z,14.57
2024-03-10T08:15:37.284Z,14.71
2024-03-10T08:18:09.180Z,14.84
2024-03-10T08:20:42.138Z,14.96
2024-03-10T08:23:13.660Z,15.06
2024-03-10T08:25:46.717Z,15.13
2024-03-10T08:28:21.148Z,15.18
2024-03-10T08:30:52.602Z,15.24
2024-03-10T08:33:23.926Z,15.27
2024-03-10T08:35:55.602Z,15.32
2024-03-10T08:38:27.675Z,15.35
2024-03-10T08:40:59.146Z,15.34
2024-03-10T08:43:30.843Z,15.33
2024-03-10T08:46:03.857Z,15.36
2024-03-10T08:48:36.830Z,15.38
2024-03-10T08:51:08.260Z,15.37
2024-03-10T08:53:40.620Z,15.36
2024-03-10T08:56:11.707Z,15.36
2024-03-10T08:58:43.027Z,15.31
2024-03-10T09:01:14.391Z,15.29
2024-03-10T09:03:45.180Z,15.31
2024-03-10T09:06:16.187Z,15.31
2024-03-10T09:08:47.646Z,15.31
2024-03-10T09:11:19.308Z,15.33
2024-03-10T09:13:50.453Z,15.32
2024-03-10T09:16:22.331Z,15.32
2024-03-10T09:18:53.744Z,15.31
2024-03-10T09:21:25.564Z,15.30
2024-03-10T09:23:56.715Z,15.32
2024-03-10T09:26:28.984Z,15.32
2024-03-10T09:29:02.519Z,15.30
2024-03-10T09:31:33.511Z,15.32
2024-03-10T09:34:05.069Z,15.32
2024-03-10T09:36:36.343Z,15.33
2024-03-10T09:39:13.802Z,15.32
2024-03-10T09:41:48.527Z,15.33
2024-03-10T09:44:20.925Z,15.34
2024-03-10T09:46:52.475Z,15.33
2024-03-10T09:49:24.755Z,15.30
2024-03-10T09:51:58.636Z,15.15
2024-03-10T09:54:29.773Z,14.84
2024-03-10T09:57:00.754Z,14.48
2024-03-10T09:59:43.521Z,14.15
2024-03-10T10:02:27.494Z,13.82
2024-03-10T10:05:08.086Z,13.56
2024-03-10T10:07:39.233Z,13.37
2024-03-10T10:10:11.493Z,13.22
2024-03-10T10:12:48.620Z,13.09
2024-03-10T10:15:22.964Z,13.01
2024-03-10T10:18:01.864Z,12.93
2024-03-10T10:20:34.528Z,12.85
2024-03-10T10:23:08.312Z,12.81
2024-03-10T10:25:39.483Z,12.80
2024-03-10T10:28:14.680Z,12.74
2024-03-10T10:30:45.932Z,12.68
2024-03-10T10:33:17.129Z,12.63
2024-03-10T10:35:48.382Z,12.59
2024-03-10T10:38:21.469Z,12.61
2024-03-10T10:40:53.458Z,12.63
2024-03-10T10:43:25.148Z,12.62
2024-03-10T10:45:56.427Z,12.60
2024-03-10T10:48:29.395Z,12.62
2024-03-10T10:51:01.930Z,12.65
2024-03-10T10:53:33.848Z,12.69
2024-03-10T10:56:05.996Z,12.75
2024-03-10T10:58:37.138Z,12.79
2024-03-10T11:01:09.077Z,12.84
2024-03-10T11:03:41.689Z,12.85
2024-03-10T11:06:39.916Z,12.84
2024-03-10T11:09:17.040Z,12.90
2024-03-10T11:11:53.366Z,13.02
2024-03-10T11:14:29.088Z,13.20
2024-03-10T11:17:15.021Z,13.32
2024-03-10T11:19:47.762Z,13.44
2024-03-10T11:22:26.430Z,13.53
2024-03-10T11:25:13.006Z,13.61
2024-03-10T11:27:46.269Z,13.68
2024-03-10T11:30:46.294Z,13.74
2024-03-10T11:33:22.789Z,13.81
2024-03-10T11:35:55.713Z,13.83
2024-03-10T11:38:27.775Z,13.86
2024-03-10T11:41:09.920Z,13.89
2024-03-10T11:43:43.321Z,13.93
2024-03-10T11:46:22.293Z,13.97
2024-03-10T11:48:54.463Z,13.99
2024-03-10T11:51:27.430Z,14.02
2024-03-10T11:53:58.330Z,14.05
2024-03-10T11:56:30.753Z,14.07
2024-03-10T11:59:05.247Z,14.08
2024-03-10T12:01:37.097Z,14.04
2024-03-10T12:04:10.057Z,14.00
2024-03-10T12:06:41.498Z,13.97
2024-03-10T12:09:13.979Z,13.94
2024-03-10T12:11:47.565Z,14.02
2024-03-10T12:14:22.546Z,14.14
2024-03-10T12:16:54.208Z,14.17
2024-03-10T12:19:26.323Z,14.25
2024-03-10T12:21:59.133Z,14.34
2024-03-10T12:24:32.032Z,14.47
2024-03-10T12:27:08.674Z,14.62
2024-03-10T12:29:49.313Z,14.76
2024-03-10T12:32:24.361Z,14.89
2024-03-10T12:34:55.812Z,15.05
2024-03-10T12:37:26.846Z,15.22
2024-03-10T12:40:00.829Z,15.38
2024-03-10T12:42:36.218Z,15.57
2024-03-10T12:45:12.165Z,15.91
2024-03-10T12:47:43.822Z,16.20
2024-03-10T12:50:15.517Z,16.39
2024-03-10T12:52:47.555Z,16.54
2024-03-10T12:55:19.727Z,16.67
2024-03-10T12:57:51.149Z,16.74
2024-03-10T13:00:30.581Z,16.74
2024-03-10T13:03:01.987Z,16.71
2024-03-10T13:05:33.536Z,16.66
2024-03-10T13:08:05.917Z,16.72
2024-03-10T13:10:37.148Z,16.83
2024-03-10T13:13:09.275Z,16.96
2024-03-10T13:15:41.602Z,17.10
2024-03-10T13:18:14.529Z,17.09
2024-03-10T13:20:46.151Z,16.99
2024-03-10T13:23:17.539Z,16.89
2024-03-10T13:25:48.917Z,16.83
2024-03-10T13:28:23.516Z,16.71
2024-03-10T13:30:54.714Z,16.54
2024-03-10T13:33:26.961Z,16.34
2024-03-10T13:36:06.670Z,16.12
2024-03-10T13:38:45.078Z,15.92
2024-03-10T13:41:16.400Z,15.78
2024-03-10T13:43:47.883Z,15.64
2024-03-10T13:46:19.337Z,15.51
2024-03-10T13:48:50.578Z,15.36
2024-03-10T13:51:22.077Z,15.22
2024-03-10T13:53:53.227Z,15.14
2024-03-10T13:56:25.457Z,15.01
2024-03-10T13:58:57.275Z,14.88
2024-03-10T14:01:28.392Z,14.75
2024-03-10T14:03:59.593Z,14.65
2024-03-10T14:06:32.770Z,14.57
2024-03-10T14:09:04.157Z,14.51
2024-03-10T14:11:35.416Z,14.50
2024-03-10T14:14:08.156Z,14.51
2024-03-10T14:16:39.525Z,14.58
2024-03-10T14:19:10.454Z,14.67
2024-03-10T14:21:41.790Z,14.80
2024-03-10T14:24:12.835Z,14.93
2024-03-10T14:26:45.017Z,15.03
2024-03-10T14:29:16.764Z,15.15
2024-03-10T14:31:48.592Z,15.27
2024-03-10T14:34:20.036Z,15.40
2024-03-10T14:36:51.970Z,15.49
2024-03-10T14:39:24.538Z,15.59
2024-03-10T14:41:56.414Z,15.67
2024-03-10T14:44:27.545Z,15.73
2024-03-10T14:46:58.860Z,15.68
2024-03-10T14:49:29.928Z,15.58
2024-03-10T14:52:01.611Z,15.54
2024-03-10T14:54:32.570Z,15.52
2024-03-10T14:57:45.299Z,15.51
2024-03-10T15:00:35.462Z,15.48
2024-03-10T15:03:09.224Z,15.50
2024-03-10T15:05:43.552Z,15.47
2024-03-10T15:08:17.230Z,15.48
2024-03-10T15:10:53.183Z,15.44
2024-03-10T15:13:26.417Z,15.37
2024-03-10T15:15:59.030Z,15.35
2024-03-10T15:18:32.569Z,15.33
2024-03-10T15:21:05.799Z,15.29
2024-03-10T15:23:37.323Z,15.25
2024-03-10T15:26:08.961Z,15.19
2024-03-10T15:28:40.085Z,15.16
2024-03-10T15:31:11.461Z,15.11
2024-03-10T15:33:42.479Z,15.04
2024-03-10T15:36:16.926Z,15.03
2024-03-10T15:38:50.351Z,15.02
2024-03-10T15:41:22.187Z,15.03
2024-03-10T15:43:53.478Z,15.04
2024-03-10T15:46:24.509Z,15.06
2024-03-10T15:48:55.478Z,15.08
2024-03-10T15:51:26.431Z,15.13
2024-03-10T15:53:57.283Z,15.16
2024-03-10T15:56:28.428Z,15.18
2024-03-10T15:58:59.369Z,15.20
2024-03-10T16:01:31.598Z,15.20
2024-03-10T16:04:06.603Z,15.18
2024-03-10T16:06:37.674Z,15.17
2024-03-10T16:09:12.332Z,15.16
2024-03-10T16:11:46.222Z,15.17
2024-03-10T16:14:19.046Z,15.16
2024-03-10T16:16:51.330Z,15.15
2024-03-10T16:19:23.489Z,15.11
2024-03-10T16:21:55.608Z,15.06
2024-03-10T16:24:30.363Z,15.02
2024-03-10T16:27:01.395Z,14.99
2024-03-10T16:29:32.285Z,14.96
2024-03-10T16:32:03.164Z,14.92
2024-03-10T16:34:34.163Z,14.90
2024-03-10T16:37:06.650Z,14.85
2024-03-10T16:39:37.483Z,14.78
2024-03-10T16:42:10.329Z,14.72
2024-03-10T16:44:44.023Z,14.67
2024-03-10T16:47:14.903Z,14.62
2024-03-10T16:49:50.980Z,14.58
2024-03-10T16:52:22.001Z,14.53
2024-03-10T16:54:53.036Z,14.49
2024-03-10T16:57:24.013Z,14.45
2024-03-10T16:59:54.886Z,14.43
2024-03-10T17:02:26.314Z,14.40
2024-03-10T17:04:57.348Z,14.37
2024-03-10T17:07:28.545Z,14.24
2024-03-10T17:09:59.576Z,14.10
2024-03-10T17:12:31.179Z,14.03
2024-03-10T17:15:02.421Z,13.99
2024-03-10T17:17:33.706Z,13.96
2024-03-10T17:20:07.513Z,13.94
2024-03-10T17:22:39.007Z,13.91
2024-03-10T17:25:11.625Z,13.87
2024-03-10T17:27:44.197Z,13.81
2024-03-10T17:30:20.413Z,13.75
2024-03-10T17:32:55.534Z,13.70
2024-03-10T17:35:27.841Z,13.66
2024-03-10T17:37:59.997Z,13.62
2024-03-10T17:40:31.381Z,13.57
2024-03-10T17:43:02.591Z,13.53
2024-03-10T17:45:39.021Z,13.49
2024-03-10T17:48:12.480Z,13.47
2024-03-10T17:50:45.266Z,13.46
2024-03-10T17:53:16.444Z,13.44
2024-03-10T17:55:50.211Z,13.41
2024-03-10T17:58:21.476Z,13.38
2024-03-10T18:00:56.890Z,13.34
2024-03-10T18:03:28.360Z,13.29
2024-03-10T18:06:00.289Z,13.26
2024-03-10T18:08:31.329Z,13.21
2024-03-10T18:11:06.343Z,13.17
2024-03-10T18:13:37.108Z,13.15
2024-03-10T18:16:11.872Z,13.12
2024-03-10T18:18:43.193Z,13.11
2024-03-10T18:21:14.383Z,13.13
2024-03-10T18:23:45.904Z,13.15
2024-03-10T18:26:17.708Z,13.16
2024-03-10T18:28:49.462Z,13.17
2024-03-10T18:31:21.116Z,13.17
2024-03-10T18:33:52.875Z,13.35
2024-03-10T18:36:24.000Z,13.41
2024-03-10T18:38:55.789Z,13.37
2024-03-10T18:41:26.846Z,13.32
2024-03-10T18:43:58.988Z,13.28
2024-03-10T18:46:30.197Z,13.24
2024-03-10T18:49:00.975Z,13.19
2024-03-10T18:51:32.115Z,13.14
2024-03-10T18:54:03.516Z,13.10
2024-03-10T18:56:34.898Z,13.08
2024-03-10T18:59:09.517Z,13.04
2024-03-10T19:01:41.036Z,13.00
2024-03-10T19:04:13.886Z,12.96
2024-03-10T19:06:45.593Z,12.93
2024-03-10T19:09:19.552Z,12.90
2024-03-10T19:11:51.010Z,12.87
2024-03-10T19:14:21.817Z,12.86
2024-03-10T19:16:52.842Z,12.86
2024-03-10T19:19:23.794Z,12.86
2024-03-10T19:21:54.648Z,12.85
2024-03-10T19:24:25.428Z,12.84
2024-03-10T19:26:56.435Z,12.82
2024-03-10T19:29:28.266Z,12.80
2024-03-10T19:31:59.909Z,12.76
2024-03-10T19:34:32.604Z,12.74
2024-03-10T19:37:04.108Z,12.73
2024-03-10T19:39:35.260Z,12.72
2024-03-10T19:42:07.389Z,12.70
2024-03-10T19:44:38.389Z,12.70
2024-03-10T19:47:12.435Z,12.72
2024-03-10T19:49:45.230Z,12.71
2024-03-10T19:52:19.323Z,12.70
2024-03-10T19:54:50.522Z,12.69
2024-03-10T19:57:22.705Z,12.67
2024-03-10T19:59:53.945Z,12.63
2024-03-10T20:02:27.673Z,12.60
2024-03-10T20:05:00.984Z,12.60
2024-03-10T20:07:32.810Z,12.59
2024-03-10T20:10:04.230Z,12.59
2024-03-10T20:12:37.759Z,12.58
2024-03-10T20:15:10.982Z,12.58
2024-03-10T20:17:43.920Z,12.58
2024-03-10T20:20:20.756Z,12.58
2024-03-10T20:22:51.677Z,12.58
2024-03-10T20:25:22.911Z,12.57
2024-03-10T20:27:57.260Z,12.57
2024-03-10T20:30:30.623Z,12.57
2024-03-10T20:33:01.938Z,12.56
2024-03-10T20:35:34.312Z,12.57
2024-03-10T20:38:05.923Z,12.58
2024-03-10T20:40:36.749Z,12.59
2024-03-10T20:43:08.365Z,12.60
2024-03-10T20:45:39.405Z,12.60
2024-03-10T20:48:11.427Z,12.60
2024-03-10T20:50:42.452Z,12.60
2024-03-10T20:53:13.388Z,12.60
2024-03-10T20:55:45.309Z,12.61
2024-03-10T20:58:16.282Z,12.61
2024-03-10T21:00:47.239Z,12.62
2024-03-10T21:03:18.169Z,12.61
2024-03-10T21:05:49.889Z,12.61
2024-03-10T21:08:20.832Z,12.60
2024-03-10T21:10:51.888Z,12.60
2024-03-10T21:13:22.912Z,12.61
2024-03-10T21:15:53.691Z,12.62
2024-03-10T21:18:24.698Z,12.64
2024-03-10T21:20:56.992Z,12.67
2024-03-10T21:23:28.366Z,12.68
2024-03-10T21:26:00.781Z,12.68
2024-03-10T21:28:32.124Z,12.68
2024-03-10T21:31:04.512Z,12.69
2024-03-10T21:33:35.836Z,12.70
2024-03-10T21:36:07.509Z,12.70
2024-03-10T21:38:38.903Z,12.72
2024-03-10T21:41:09.792Z,12.72
2024-03-10T21:43:40.900Z,12.72
2024-03-10T21:46:12.169Z,12.72
2024-03-10T21:48:43.005Z,12.72
2024-03-10T21:51:13.691Z,12.70
2024-03-10T21:53:44.703Z,12.64
2024-03-10T21:56:16.269Z,12.63
2024-03-10T21:58:48.739Z,12.63
2024-03-10T22:01:19.581Z,12.63
2024-03-10T22:03:50.345Z,12.62
2024-03-10T22:06:21.087Z,12.64
2024-03-10T22:08:52.129Z,12.65
2024-03-10T22:11:24.155Z,12.65
2024-03-10T22:13:58.648Z,12.64
2024-03-10T22:16:30.665Z,12.63
2024-03-10T22:19:01.492Z,12.61
2024-03-10T22:21:32.904Z,12.60
2024-03-10T22:24:03.849Z,12.60
2024-03-10T22:26:36.718Z,12.60
2024-03-10T22:29:08.385Z,12.60
2024-03-10T22:31:39.653Z,12.61
2024-03-10T22:34:10.432Z,12.61
2024-03-10T22:36:41.556Z,12.54
2024-03-10T22:39:14.785Z,12.50
2024-03-10T22:41:46.377Z,12.49
2024-03-10T22:44:17.330Z,12.49
2024-03-10T22:46:48.298Z,12.49
2024-03-10T22:49:19.159Z,12.46
2024-03-10T22:51:50.520Z,12.47
2024-03-10T22:54:21.429Z,12.48
2024-03-10T22:56:52.900Z,12.47
2024-03-10T22:59:24.654Z,12.48
2024-03-10T23:01:56.060Z,12.51
2024-03-10T23:04:29.001Z,12.53
2024-03-10T23:07:00.706Z,12.56
2024-03-10T23:09:32.578Z,12.58
2024-03-10T23:12:04.232Z,12.59
2024-03-10T23:14:38.428Z,12.60
2024-03-10T23:17:11.111Z,12.61
2024-03-10T23:19:43.096Z,12.61
2024-03-10T23:22:14.746Z,12.62
2024-03-10T23:24:46.094Z,12.65
2024-03-10T23:27:18.638Z,12.68
2024-03-10T23:29:50.289Z,12.69
2024-03-10T23:32:21.749Z,12.69
2024-03-10T23:34:52.799Z,12.68
2024-03-10T23:37:23.993Z,12.67
2024-03-10T23:39:54.825Z,12.64
2024-03-10T23:42:27.230Z,12.63
2024-03-10T23:44:59.483Z,12.60
2024-03-10T23:47:30.705Z,12.59
2024-03-10T23:50:01.591Z,12.58
2024-03-10T23:52:32.609Z,12.56
2024-03-10T23:55:03.476Z,12.53
2024-03-10T23:57:34.395Z,12.51
